createdAt,value
2023-03-21T00:01:52.781Z,0.30
2023-03-21T00:04:20.959Z,0.45
2023-03-21T00:06:48.128Z,0.60
2023-03-21T00:09:15.516Z,0.45
2023-03-21T00:11:42.952Z,0.43
2023-03-21T00:14:15.078Z,0.43
2023-03-21T00:16:45.888Z,0.52
2023-03-21T00:19:14.446Z,0.40
2023-03-21T00:21:59.565Z,0.73
2023-03-21T00:24:29.776Z,0.75
2023-03-21T00:27:12.542Z,0.60
2023-03-21T00:29:49.460Z,0.38
2023-03-21T00:32:19.774Z,0.50
2023-03-21T00:35:02.398Z,0.45
2023-03-21T00:37:36.363Z,1.23
2023-03-21T00:40:16.382Z,0.30
2023-03-21T00:42:50.483Z,0.40
2023-03-21T00:45:19.421Z,0.40
2023-03-21T00:47:46.593Z,0.45
2023-03-21T00:50:14.026Z,0.80
2023-03-21T00:52:41.661Z,0.50
2023-03-21T00:55:16.908Z,0.82
2023-03-21T00:57:47.496Z,0.80
2023-03-21T01:00:20.589Z,0.65
2023-03-21T01:03:08.565Z,0.50
2023-03-21T01:06:06.358Z,0.50
2023-03-21T01:08:52.247Z,1.00
2023-03-21T01:11:22.702Z,0.47
2023-03-21T01:13:56.057Z,0.50
2023-03-21T01:16:26.899Z,0.50
2023-03-21T01:18:54.186Z,0.52
2023-03-21T01:21:21.411Z,0.50
2023-03-21T01:23:48.519Z,1.17
2023-03-21T01:26:16.056Z,1.00
2023-03-21T01:28:44.722Z,0.50
2023-03-21T01:31:13.316Z,0.75
2023-03-21T01:33:41.151Z,0.95
2023-03-21T01:36:13.268Z,0.80
2023-03-21T01:38:42.597Z,0.88
2023-03-21T01:41:47.267Z,0.77
2023-03-21T01:44:26.497Z,0.60
2023-03-21T01:47:12.172Z,0.45
2023-03-21T01:49:41.756Z,0.63
2023-03-21T01:52:35.443Z,0.68
2023-03-21T01:55:08.295Z,0.40
2023-03-21T01:58:02.364Z,0.40
2023-03-21T02:00:33.012Z,1.35
2023-03-21T02:03:26.192Z,0.80
2023-03-21T02:06:43.925Z,1.20
2023-03-21T02:09:25.461Z,0.90
2023-03-21T02:11:53.864Z,0.82
2023-03-21T02:14:29.238Z,0.75
2023-03-21T02:17:18.465Z,1.20
2023-03-21T02:20:29.926Z,1.05
2023-03-21T02:23:17.454Z,1.30
2023-03-21T02:26:24.787Z,0.52
2023-03-21T02:29:10.513Z,1.23
2023-03-21T02:32:09.306Z,0.75
2023-03-21T02:35:06.490Z,0.82
2023-03-21T02:37:59.929Z,2.08
2023-03-21T02:40:55.989Z,0.73
2023-03-21T02:43:49.513Z,1.05
2023-03-21T02:46:28.361Z,0.95
2023-03-21T02:49:09.568Z,1.13
2023-03-21T02:51:37.214Z,1.30
2023-03-21T02:54:28.135Z,1.05
2023-03-21T02:56:56.054Z,1.20
2023-03-21T02:59:23.856Z,1.02
2023-03-21T03:01:53.091Z,1.60
2023-03-21T03:04:28.223Z,1.20
2023-03-21T03:07:31.862Z,0.80
2023-03-21T03:10:04.952Z,1.50
2023-03-21T03:12:43.235Z,1.45
2023-03-21T03:15:17.971Z,1.10
2023-03-21T03:18:06.434Z,1.02
2023-03-21T03:20:57.245Z,1.10
2023-03-21T03:23:45.678Z,1.48
2023-03-21T03:26:21.566Z,0.77
2023-03-21T03:28:51.353Z,0.90
2023-03-21T03:31:26.046Z,1.05
2023-03-21T03:34:00.709Z,1.38
2023-03-21T03:36:32.752Z,0.60
2023-03-21T03:39:09.016Z,0.55
2023-03-21T03:42:04.352Z,0.35
2023-03-21T03:44:33.516Z,0.25
2023-03-21T03:47:11.816Z,0.40
2023-03-21T03:49:48.763Z,0.20
2023-03-21T03:52:21.982Z,0.30
2023-03-21T03:54:56.307Z,0.20
2023-03-21T03:57:27.910Z,0.60
2023-03-21T03:59:56.558Z,0.30
2023-03-21T04:02:47.153Z,0.55
2023-03-21T04:05:21.553Z,0.38
2023-03-21T04:07:51.072Z,0.30
2023-03-21T04:10:23.381Z,0.20
2023-03-21T04:12:50.694Z,0.20
2023-03-21T04:15:23.418Z,0.70
2023-03-21T04:17:56.742Z,0.63
2023-03-21T04:20:36.092Z,0.40
2023-03-21T04:23:05.564Z,0.22
2023-03-21T04:25:40.384Z,0.45
2023-03-21T04:28:12.482Z,0.52
2023-03-21T04:31:08.900Z,0.30
2023-03-21T04:33:48.088Z,0.20
2023-03-21T04:36:27.785Z,0.28
2023-03-21T04:39:01.675Z,0.20
2023-03-21T04:41:32.220Z,0.77
2023-03-21T04:43:59.660Z,0.30
2023-03-21T04:46:27.982Z,0.10
2023-03-21T04:48:55.708Z,1.15
2023-03-21T04:51:22.873Z,0.35
2023-03-21T04:53:52.556Z,0.10
2023-03-21T04:56:21.050Z,0.70
2023-03-21T04:58:49.602Z,0.20
2023-03-21T05:01:20.733Z,0.25
2023-03-21T05:03:48.665Z,0.20
2023-03-21T05:06:16.217Z,0.10
2023-03-21T05:08:43.403Z,0.20
2023-03-21T05:11:12.752Z,0.43
2023-03-21T05:13:39.807Z,0.50
2023-03-21T05:16:07.608Z,0.10
2023-03-21T05:18:38.660Z,0.20
2023-03-21T05:21:12.366Z,0.17
2023-03-21T05:23:42.184Z,0.30
2023-03-21T05:26:10.612Z,0.77
2023-03-21T05:28:52.706Z,0.43
2023-03-21T05:31:20.433Z,0.25
2023-03-21T05:33:51.682Z,0.13
2023-03-21T05:36:20.411Z,0.10
2023-03-21T05:38:47.740Z,0.38
2023-03-21T05:41:18.753Z,0.30
2023-03-21T05:43:46.409Z,0.20
2023-03-21T05:46:16.246Z,0.13
2023-03-21T05:48:45.006Z,0.75
2023-03-21T05:51:18.264Z,0.10
2023-03-21T05:53:46.887Z,0.57
2023-03-21T05:56:20.162Z,0.10
2023-03-21T05:58:54.214Z,0.40
2023-03-21T06:01:23.035Z,0.15
2023-03-21T06:03:58.588Z,0.10
2023-03-21T06:06:28.202Z,0.10
2023-03-21T06:08:57.370Z,0.10
2023-03-21T06:12:16.540Z,0.10
2023-03-21T06:15:02.224Z,0.65
2023-03-21T06:17:32.987Z,0.10
2023-03-21T06:20:07.183Z,0.20
2023-03-21T06:22:44.947Z,0.10
2023-03-21T06:25:12.017Z,0.20
2023-03-21T06:27:41.477Z,0.20
2023-03-21T06:30:09.365Z,0.17
2023-03-21T06:32:46.901Z,0.10
2023-03-21T06:35:17.437Z,0.45
2023-03-21T06:37:46.327Z,0.10
2023-03-21T06:40:13.951Z,0.10
2023-03-21T06:42:42.370Z,0.47
2023-03-21T06:45:11.731Z,0.03
2023-03-21T06:47:39.125Z,0.20
2023-03-21T06:50:13.245Z,0.15
2023-03-21T06:52:42.690Z,0.00
2023-03-21T06:55:11.563Z,0.10
2023-03-21T06:57:39.104Z,0.20
2023-03-21T07:00:09.324Z,0.08
2023-03-21T07:02:42.297Z,0.63
2023-03-21T07:05:14.655Z,0.20
2023-03-21T07:07:42.735Z,0.20
2023-03-21T07:10:10.762Z,0.10
2023-03-21T07:12:47.309Z,0.10
2023-03-21T07:15:19.285Z,0.10
2023-03-21T07:17:46.959Z,0.00
2023-03-21T07:20:17.610Z,0.10
2023-03-21T07:22:46.881Z,0.10
2023-03-21T07:25:14.391Z,0.20
2023-03-21T07:27:42.432Z,0.00
2023-03-21T07:30:10.310Z,0.00
2023-03-21T07:32:38.478Z,0.00
2023-03-21T07:35:11.311Z,0.00
2023-03-21T07:37:39.231Z,0.10
2023-03-21T07:40:11.152Z,0.10
2023-03-21T07:42:42.689Z,0.00
2023-03-21T07:45:16.577Z,0.32
2023-03-21T07:47:47.036Z,0.10
2023-03-21T07:50:14.597Z,0.00
2023-03-21T07:52:42.223Z,0.00
2023-03-21T07:59:12.364Z,0.10
2023-03-21T08:01:39.822Z,0.10
2023-03-21T08:04:06.947Z,0.10
2023-03-21T08:06:34.026Z,0.10
2023-03-21T08:09:01.567Z,0.10
2023-03-21T08:11:31.452Z,0.65
2023-03-21T08:13:59.684Z,0.30
2023-03-21T08:16:27.370Z,0.03
2023-03-21T08:18:54.508Z,0.03
2023-03-21T08:21:21.774Z,0.60
2023-03-21T08:23:48.973Z,0.10
2023-03-21T08:26:18.500Z,0.10
2023-03-21T08:28:46.425Z,0.00
2023-03-21T08:31:14.420Z,0.10
2023-03-21T08:33:42.578Z,0.00
2023-03-21T08:36:10.855Z,0.20
2023-03-21T08:38:37.976Z,0.00
2023-03-21T08:41:05.452Z,0.10
2023-03-21T08:43:33.063Z,0.10
2023-03-21T08:46:00.463Z,0.10
2023-03-21T08:48:27.817Z,0.28
2023-03-21T08:50:54.936Z,0.10
2023-03-21T08:53:22.296Z,0.22
2023-03-21T08:55:49.821Z,0.30
2023-03-21T08:58:17.278Z,0.10
2023-03-21T09:00:44.457Z,0.10
2023-03-21T09:03:12.071Z,0.00
2023-03-21T09:05:39.489Z,0.10
2023-03-21T09:08:06.968Z,0.10
2023-03-21T09:10:34.287Z,0.00
2023-03-21T09:13:01.492Z,0.60
2023-03-21T09:15:29.852Z,0.10
2023-03-21T09:17:58.775Z,0.00
2023-03-21T09:20:31.051Z,0.30
2023-03-21T09:22:59.139Z,0.10
2023-03-21T09:25:33.489Z,0.00
2023-03-21T09:28:05.390Z,0.00
2023-03-21T09:30:33.781Z,0.17
2023-03-21T09:33:02.019Z,0.28
2023-03-21T09:35:29.532Z,0.10
2023-03-21T09:37:59.559Z,0.00
2023-03-21T09:40:41.006Z,0.00
2023-03-21T09:43:27.168Z,0.10
2023-03-21T09:46:00.050Z,0.10
2023-03-21T09:48:46.957Z,0.10
2023-03-21T09:51:21.430Z,0.00
2023-03-21T09:53:50.153Z,0.10
2023-03-21T09:56:17.623Z,0.00
2023-03-21T09:58:46.929Z,0.00
2023-03-21T10:01:43.990Z,0.08
2023-03-21T10:04:12.998Z,0.00
2023-03-21T10:06:41.677Z,0.00
2023-03-21T10:09:15.054Z,0.00
2023-03-21T10:11:46.618Z,0.17
2023-03-21T10:14:21.751Z,0.28
2023-03-21T10:16:54.026Z,0.00
2023-03-21T10:19:21.857Z,0.17
2023-03-21T10:22:01.237Z,0.10
2023-03-21T10:24:30.140Z,0.00
2023-03-21T10:26:59.534Z,0.20
2023-03-21T10:29:28.933Z,0.03
2023-03-21T10:32:22.972Z,0.00
2023-03-21T10:34:59.279Z,0.00
2023-03-21T10:37:26.971Z,0.00
2023-03-21T10:39:54.485Z,0.00
2023-03-21T10:42:26.829Z,0.00
2023-03-21T10:44:56.306Z,0.00
2023-03-21T10:47:30.820Z,0.10
2023-03-21T10:50:08.247Z,0.00
2023-03-21T10:52:37.301Z,0.00
2023-03-21T10:55:25.319Z,0.10
2023-03-21T10:57:59.135Z,0.10
2023-03-21T11:00:29.185Z,0.00
2023-03-21T11:02:56.463Z,0.00
2023-03-21T11:05:33.624Z,0.00
2023-03-21T11:08:04.830Z,0.00
2023-03-21T11:10:38.045Z,0.00
2023-03-21T11:13:13.818Z,0.00
2023-03-21T11:15:47.209Z,0.00
2023-03-21T11:18:18.066Z,0.00
2023-03-21T11:21:17.770Z,0.00
2023-03-21T11:23:52.937Z,0.00
2023-03-21T11:26:24.132Z,0.20
2023-03-21T11:28:53.933Z,0.15
2023-03-21T11:31:24.686Z,0.00
2023-03-21T11:33:56.979Z,0.00
2023-03-21T11:36:24.178Z,0.00
2023-03-21T11:39:01.758Z,0.00
2023-03-21T11:41:30.655Z,0.08
2023-03-21T11:43:58.013Z,0.08
2023-03-21T11:46:26.576Z,0.08
2023-03-21T11:48:53.577Z,0.00
2023-03-21T11:51:34.520Z,0.00
2023-03-21T11:54:30.484Z,0.00
2023-03-21T11:57:03.879Z,0.00
2023-03-21T11:59:40.619Z,0.10
2023-03-21T12:02:25.455Z,0.00
2023-03-21T12:05:12.703Z,0.00
2023-03-21T12:08:15.609Z,0.00
2023-03-21T12:11:04.878Z,0.03
2023-03-21T12:13:46.659Z,0.00
2023-03-21T12:16:33.097Z,0.00
2023-03-21T12:19:21.718Z,0.00
2023-03-21T12:22:11.132Z,0.00
2023-03-21T12:24:55.336Z,0.00
2023-03-21T12:27:37.659Z,0.00
2023-03-21T12:30:32.260Z,0.00
2023-03-21T12:33:14.684Z,0.10
2023-03-21T12:35:56.715Z,0.00
2023-03-21T12:38:48.686Z,0.00
2023-03-21T12:41:47.696Z,0.00
2023-03-21T12:44:18.313Z,0.05
2023-03-21T12:47:00.329Z,0.10
2023-03-21T12:49:38.854Z,0.00
2023-03-21T12:52:08.753Z,0.00
2023-03-21T12:54:41.199Z,0.00
2023-03-21T12:57:18.854Z,0.10
2023-03-21T12:59:50.480Z,0.00
2023-03-21T13:02:39.126Z,0.17
2023-03-21T13:05:24.860Z,0.10
2023-03-21T13:08:17.555Z,0.00
2023-03-21T13:10:45.340Z,0.00
2023-03-21T13:13:32.065Z,0.03
2023-03-21T13:16:22.119Z,0.00
2023-03-21T13:18:56.351Z,0.00
2023-03-21T13:21:29.253Z,0.10
2023-03-21T13:24:17.923Z,0.00
2023-03-21T13:26:49.873Z,0.00
2023-03-21T13:29:28.574Z,0.00
2023-03-21T13:31:59.078Z,0.00
2023-03-21T13:34:26.975Z,0.00
2023-03-21T13:36:54.480Z,0.05
2023-03-21T13:39:28.338Z,0.20
2023-03-21T13:41:56.018Z,0.00
2023-03-21T13:44:34.087Z,0.10
2023-03-21T13:47:02.930Z,0.00
2023-03-21T13:49:35.405Z,0.10
2023-03-21T13:52:12.187Z,0.00
2023-03-21T13:54:39.220Z,0.00
2023-03-21T13:57:06.442Z,0.00
2023-03-21T13:59:46.540Z,0.00
2023-03-21T14:02:13.588Z,0.00
2023-03-21T14:05:03.723Z,0.30
2023-03-21T14:07:52.860Z,0.10
2023-03-21T14:10:35.404Z,0.10
2023-03-21T14:13:03.436Z,0.05
2023-03-21T14:15:54.935Z,0.00
2023-03-21T14:18:34.943Z,0.00
2023-03-21T14:21:31.314Z,0.10
2023-03-21T14:24:03.326Z,0.00
2023-03-21T14:26:33.177Z,0.20
2023-03-21T14:29:02.842Z,0.32
2023-03-21T14:31:31.023Z,0.10
2023-03-21T14:33:58.811Z,0.10
2023-03-21T14:36:28.719Z,0.00
2023-03-21T14:39:08.306Z,0.00
2023-03-21T14:41:43.032Z,0.00
2023-03-21T14:44:10.168Z,0.10
2023-03-21T14:46:37.620Z,0.10
2023-03-21T14:49:18.993Z,0.10
2023-03-21T14:51:47.411Z,0.03
2023-03-21T14:54:19.765Z,0.10
2023-03-21T14:56:54.796Z,0.10
2023-03-21T14:59:23.634Z,0.10
2023-03-21T15:01:52.882Z,0.43
2023-03-21T15:04:22.824Z,0.05
2023-03-21T15:06:54.534Z,0.00
2023-03-21T15:09:23.574Z,0.10
2023-03-21T15:11:51.888Z,0.00
2023-03-21T15:14:21.055Z,0.08
2023-03-21T15:16:48.244Z,0.10
2023-03-21T15:19:18.674Z,0.10
2023-03-21T15:21:48.584Z,0.08
2023-03-21T15:24:25.761Z,0.00
2023-03-21T15:26:57.048Z,0.17
2023-03-21T15:29:24.033Z,0.00
2023-03-21T15:31:51.178Z,0.10
2023-03-21T15:34:28.395Z,0.10
2023-03-21T15:36:58.166Z,0.10
2023-03-21T15:39:27.588Z,0.00
2023-03-21T15:41:59.559Z,0.30
2023-03-21T15:44:27.855Z,0.10
2023-03-21T15:46:55.509Z,0.10
2023-03-21T15:49:33.115Z,0.20
2023-03-21T15:52:04.403Z,0.10
2023-03-21T15:55:28.690Z,0.00
2023-03-21T15:58:00.932Z,0.77
2023-03-21T16:00:40.171Z,0.00
2023-03-21T16:03:16.858Z,0.15
2023-03-21T16:05:43.937Z,0.60
2023-03-21T16:08:27.321Z,0.40
2023-03-21T16:10:54.291Z,0.03
2023-03-21T16:13:21.385Z,0.00
2023-03-21T16:15:48.499Z,0.30
2023-03-21T16:18:16.134Z,0.32
2023-03-21T16:20:45.324Z,0.00
2023-03-21T16:23:15.828Z,0.90
2023-03-21T16:25:43.799Z,0.10
2023-03-21T16:28:15.960Z,0.10
2023-03-21T16:30:43.413Z,0.10
2023-03-21T16:33:12.312Z,0.20
2023-03-21T16:35:39.868Z,0.13
2023-03-21T16:38:09.531Z,0.00
2023-03-21T16:40:41.689Z,0.38
2023-03-21T16:43:09.014Z,0.20
2023-03-21T16:45:36.158Z,0.10
2023-03-21T16:48:03.357Z,0.22
2023-03-21T16:50:40.221Z,0.10
2023-03-21T16:53:07.590Z,0.13
2023-03-21T16:55:35.335Z,0.20
2023-03-21T16:58:02.485Z,0.20
2023-03-21T17:00:30.800Z,0.15
2023-03-21T17:03:00.781Z,0.10
2023-03-21T17:05:28.324Z,0.55
2023-03-21T17:07:55.463Z,0.20
2023-03-21T17:10:25.363Z,0.10
2023-03-21T17:12:52.561Z,0.17
2023-03-21T17:15:19.648Z,0.40
2023-03-21T17:17:46.696Z,0.10
2023-03-21T17:20:21.628Z,0.03
2023-03-21T17:22:49.137Z,0.10
2023-03-21T17:25:17.253Z,0.40
2023-03-21T17:27:44.441Z,0.10
2023-03-21T17:30:30.645Z,0.55
2023-03-21T17:32:58.677Z,0.00
2023-03-21T17:35:27.023Z,0.35
2023-03-21T17:37:54.368Z,0.20
2023-03-21T17:40:24.087Z,0.20
2023-03-21T17:42:51.601Z,0.20
2023-03-21T17:45:19.013Z,0.28
2023-03-21T17:47:46.133Z,0.20
2023-03-21T17:50:20.344Z,0.10
2023-03-21T17:52:49.618Z,0.00
2023-03-21T17:55:19.553Z,0.00
2023-03-21T17:57:47.875Z,0.30
2023-03-21T18:00:20.927Z,0.10
2023-03-21T18:02:49.183Z,0.00
2023-03-21T18:05:16.377Z,0.10
2023-03-21T18:10:32.894Z,0.30
2023-03-21T18:13:00.264Z,0.00
2023-03-21T18:15:30.188Z,1.10
2023-03-21T18:17:58.046Z,0.10
2023-03-21T18:20:44.485Z,0.30
2023-03-21T18:24:09.309Z,0.10
2023-03-21T18:26:36.666Z,0.10
2023-03-21T18:29:57.070Z,0.00
2023-03-21T18:32:05.081Z,0.32
2023-03-21T18:34:33.920Z,0.10
2023-03-21T18:37:03.987Z,0.10
2023-03-21T18:39:33.086Z,0.00
2023-03-21T18:42:02.537Z,0.10
2023-03-21T18:44:37.438Z,0.03
2023-03-21T18:47:06.703Z,0.10
2023-03-21T18:52:24.226Z,0.10
2023-03-21T18:54:51.494Z,0.00
2023-03-21T18:57:38.632Z,0.10
2023-03-21T19:00:13.389Z,0.30
2023-03-21T19:02:46.767Z,0.52
2023-03-21T19:05:16.194Z,0.25
2023-03-21T19:07:43.487Z,0.00
2023-03-21T19:10:19.615Z,0.20
2023-03-21T19:12:48.618Z,0.10
2023-03-21T19:15:18.034Z,0.17
2023-03-21T19:20:33.856Z,0.10
2023-03-21T19:23:01.251Z,0.10
2023-03-21T19:25:28.382Z,0.10
2023-03-21T19:27:55.677Z,0.40
2023-03-21T19:30:22.754Z,0.10
2023-03-21T19:32:49.883Z,0.73
2023-03-21T19:35:17.486Z,0.20
2023-03-21T19:37:44.628Z,0.20
2023-03-21T19:40:12.163Z,0.20
2023-03-21T19:42:40.663Z,0.13
2023-03-21T19:45:13.440Z,0.10
2023-03-21T19:47:42.375Z,0.38
2023-03-21T19:50:49.192Z,0.32
2023-03-21T19:53:00.482Z,0.10
2023-03-21T19:55:27.651Z,0.10
2023-03-21T19:58:01.262Z,0.30
2023-03-21T20:00:59.057Z,0.30
2023-03-21T20:03:26.450Z,0.60
2023-03-21T20:06:04.232Z,0.30
2023-03-21T20:08:48.854Z,0.20
2023-03-21T20:11:19.974Z,0.30
2023-03-21T20:13:49.601Z,0.20
2023-03-21T20:16:18.348Z,0.82
2023-03-21T20:18:46.335Z,0.57
2023-03-21T20:21:18.510Z,0.63
2023-03-21T20:23:51.059Z,0.40
2023-03-21T20:26:21.172Z,0.50
2023-03-21T20:29:00.198Z,0.25
2023-03-21T20:31:36.011Z,0.50
2023-03-21T20:34:03.464Z,0.30
2023-03-21T20:36:39.966Z,0.93
2023-03-21T20:39:07.743Z,0.55
2023-03-21T20:41:35.174Z,0.20
2023-03-21T20:46:49.905Z,0.30
2023-03-21T20:49:17.014Z,0.50
2023-03-21T20:54:32.378Z,0.30
2023-03-21T20:57:00.647Z,0.30
2023-03-21T20:59:30.734Z,0.20
2023-03-21T21:02:03.248Z,0.77
2023-03-21T21:04:55.792Z,0.20
2023-03-21T21:07:29.213Z,0.22
2023-03-21T21:10:23.949Z,0.22
2023-03-21T21:15:48.020Z,0.30
2023-03-21T21:18:33.520Z,0.80
2023-03-21T21:21:05.245Z,0.20
2023-03-21T21:24:50.741Z,0.13
2023-03-21T21:27:18.765Z,0.60
2023-03-21T21:29:47.921Z,0.10
2023-03-21T21:32:16.954Z,0.10
2023-03-21T21:34:44.546Z,0.45
2023-03-21T21:37:11.809Z,0.45
2023-03-21T21:39:40.487Z,0.30
2023-03-21T21:42:08.568Z,0.10
2023-03-21T21:44:37.929Z,0.10
2023-03-21T21:47:09.256Z,0.25
2023-03-21T21:49:36.969Z,0.20
2023-03-21T21:52:05.975Z,0.50
2023-03-21T21:54:36.388Z,0.10
2023-03-21T21:57:04.089Z,0.08
2023-03-21T21:59:31.629Z,0.35
2023-03-21T22:01:58.671Z,0.25
2023-03-21T22:04:27.867Z,0.63
2023-03-21T22:06:58.778Z,0.50
2023-03-21T22:09:26.201Z,0.20
2023-03-21T22:11:56.581Z,0.10
2023-03-21T22:14:23.925Z,0.10
2023-03-21T22:16:51.986Z,0.30
2023-03-21T22:19:19.201Z,0.30
2023-03-21T22:21:47.705Z,0.00
2023-03-21T22:24:16.662Z,0.40
2023-03-21T22:26:46.002Z,0.40
2023-03-21T22:29:14.360Z,0.65
2023-03-21T22:31:47.057Z,0.20
2023-03-21T22:34:15.570Z,0.10
2023-03-21T22:36:47.200Z,0.10
2023-03-21T22:39:16.550Z,0.28
2023-03-21T22:41:44.218Z,0.30
2023-03-21T22:44:11.439Z,0.20
2023-03-21T22:46:38.711Z,0.30
2023-03-21T22:49:06.163Z,0.17
2023-03-21T22:51:33.432Z,0.38
2023-03-21T22:54:00.871Z,0.22
2023-03-21T22:56:28.392Z,0.40
2023-03-21T22:58:57.288Z,0.20
2023-03-21T23:01:24.402Z,0.40
2023-03-21T23:03:51.652Z,0.30
2023-03-21T23:06:19.890Z,0.22
2023-03-21T23:08:47.381Z,0.32
2023-03-21T23:11:14.578Z,0.38
2023-03-21T23:13:41.665Z,0.30
2023-03-21T23:16:09.250Z,0.65
2023-03-21T23:18:37.353Z,0.82
2023-03-21T23:21:24.861Z,0.10
2023-03-21T23:23:58.103Z,0.17
2023-03-21T23:26:28.988Z,0.32
2023-03-21T23:28:57.044Z,0.17
2023-03-21T23:31:35.302Z,0.20
2023-03-21T23:34:10.409Z,0.20
2023-03-21T23:36:49.836Z,0.30
2023-03-21T23:39:19.128Z,0.50
2023-03-21T23:41:46.786Z,0.20
2023-03-21T23:44:15.803Z,0.10
2023-03-21T23:46:43.215Z,0.40
2023-03-21T23:49:12.187Z,0.32
2023-03-21T23:51:39.523Z,0.52
2023-03-21T23:54:17.149Z,0.00
2023-03-21T23:56:47.235Z,0.10
2023-03-21T23:59:15.247Z,0.13
